Latest Weather Observations for Goulburn Airport

IDN60901

Issued at 8:51 pm EDT Tuesday 23 October 2018 (issued every 10 minutes, with the page automatically refreshed every 10 minutes)

About weather observations | Map of Canberra area stations | Latest observations for Canberra area | Other Formats
Station Details ID: 070330 Name: GOULBURN AIRPORT AWS Lat: -34.81 Lon: 149.73 Height: 640.0 m
Data from the previous 72 hours. | See also: Recent months at Goulburn Airport
Date/Time
EDT
Temp
°C
App
Temp
°C
Dew
Point
°C
Rel
Hum
%
Delta-T
°C
Wind Press
QNH
hPa
Press
MSL
hPa
Rain since
9am
mm
Dir  Spd
km/h
Gust
km/h
Spd
kts
Gust
kts
23/08:30pm 15.5 12.6 1.6 39 6.3 NW 6 9 3 5 1014.2 1013.4 0.0
23/08:00pm 16.5 13.0 1.0 35 7.0 NW 9 11 5 6 1013.9 1013.1 0.0
23/07:30pm 21.3 16.4 -0.6 23 10.0 NW 15 19 8 10 1013.6 1012.8 0.0
23/07:00pm 23.4 17.9 0.5 22 10.9 WNW 19 20 10 11 1013.3 1012.4 0.0
23/06:30pm 25.6 18.2 -0.5 18 12.3 WNW 28 35 15 19 1012.9 1012.1 0.0
23/06:00pm 26.3 17.9 -0.7 17 12.8 WNW 33 46 18 25 1012.9 1012.1 0.0
23/05:53pm 26.4 19.0 -0.6 17 12.8 NW 28 46 15 25 1012.8 1012.0 0.0
23/05:30pm 26.8 18.6 0.5 18 12.8 WNW 33 43 18 23 1012.7 1011.9 0.0
23/05:00pm 26.7 19.0 -0.3 17 12.9 NW 30 41 16 22 1012.7 1011.9 0.0
23/04:30pm 26.8 18.5 -0.3 17 13.0 WNW 33 44 18 24 1012.7 1011.9 0.0
23/04:00pm 26.4 18.5 0.9 19 12.5 W 32 43 17 23 1012.9 1012.1 0.0
23/03:30pm 26.1 19.0 1.4 20 12.1 WNW 28 37 15 20 1013.0 1012.2 0.0
23/03:00pm 27.1 19.6 3.6 22 12.1 NNW 32 44 17 24 1013.1 1012.3 0.0
23/02:35pm 27.0 20.0 4.1 23 11.9 NW 30 54 16 29 1013.4 1012.5 0.0
23/02:30pm 26.5 19.2 4.3 24 11.5 NW 32 44 17 24 1013.6 1012.8 0.0
23/02:06pm 27.2 19.9 2.3 20 12.5 NW 30 48 16 26 1013.9 1013.1 0.0
23/02:00pm 26.8 18.9 1.3 19 12.6 NW 32 41 17 22 1014.0 1013.2 0.0
23/01:34pm 27.0 19.9 3.5 22 12.1 NW 30 48 16 26 1014.1 1013.3 0.0
23/01:30pm 27.1 20.1 4.2 23 11.9 NW 30 41 16 22 1014.3 1013.5 0.0
23/01:00pm 25.2 18.2 2.0 22 11.5 NW 28 44 15 24 1014.6 1013.8 0.0
23/12:30pm 24.9 17.7 0.4 20 11.7 WNW 28 39 15 21 1014.9 1014.1 0.0
23/12:00pm 25.7 18.7 1.8 21 11.8 NW 28 37 15 20 1015.3 1014.5 0.0
23/11:30am 24.9 18.4 2.4 23 11.2 NW 26 35 14 19 1015.7 1014.9 0.0
23/11:00am 24.5 18.4 2.6 24 10.9 WNW 24 37 13 20 1016.0 1015.2 0.0
23/10:30am 23.5 16.8 3.4 27 10.1 NW 28 37 15 20 1016.1 1015.3 0.0
23/10:00am 22.9 18.1 4.4 30 9.4 NNW 19 33 10 18 1016.1 1015.3 0.0
23/09:30am 19.6 16.9 10.3 55 5.2 N 15 20 8 11 1016.3 1015.6 0.0
23/09:00am 17.3 16.5 11.8 70 3.1 N 7 11 4 6 1016.6 1015.8 0.0
23/08:30am 13.0 12.4 10.4 84 1.4 NNE 4 7 2 4 1016.7 1015.9 0.0
23/08:00am 10.5 10.4 9.4 93 0.6 CALM 0 0 0 0 1016.8 1016.0 0.0
23/07:30am 8.6 8.3 8.5 99 0.1 CALM 0 0 0 0 1016.6 1015.8 0.0
23/07:00am 7.1 6.4 7.0 99 0.0 CALM 0 4 0 2 1016.2 1015.5 0.0
23/06:30am 5.0 3.5 4.9 99 0.0 N 2 7 1 4 1016.0 1015.2 0.0
23/06:00am 5.3 4.2 5.2 99 0.0 CALM 0 0 0 0 1015.6 1014.8 0.0
23/05:30am 4.5 3.1 3.8 95 0.3 CALM 0 0 0 0 1015.6 1014.8 0.0
23/05:06am 5.4 4.3 5.0 97 0.2 CALM 0 0 0 0 1015.5 1014.7 0.0
23/05:00am 5.2 4.0 4.8 97 0.2 CALM 0 0 0 0 1015.6 1014.8 0.0
23/04:47am 5.6 4.5 5.2 97 0.2 CALM 0 0 0 0 1015.7 1014.9 0.0
23/04:30am 5.5 4.3 4.8 95 0.3 CALM 0 0 0 0 1015.5 1014.7 0.0
23/04:00am 6.3 5.3 5.7 96 0.3 CALM 0 0 0 0 1015.7 1014.9 0.0
23/03:30am 6.1 5.1 5.4 95 0.3 CALM 0 0 0 0 1015.7 1014.9 0.0
23/03:00am 5.9 4.7 4.5 91 0.6 CALM 0 0 0 0 1015.7 1014.9 0.0
23/02:30am 6.8 5.8 5.6 92 0.6 CALM 0 0 0 0 1015.9 1015.1 0.0
23/02:00am 7.6 6.8 6.5 93 0.5 CALM 0 0 0 0 1016.2 1015.5 0.0
23/01:30am 7.7 7.0 6.8 94 0.4 CALM 0 0 0 0 1016.4 1015.7 0.0
23/01:00am 8.4 7.8 7.3 93 0.5 CALM 0 0 0 0 1016.8 1016.0 0.0
23/12:30am 8.7 8.1 7.2 90 0.7 CALM 0 0 0 0 1017.0 1016.2 0.0
23/12:00am 9.2 8.6 7.2 87 1.0 CALM 0 0 0 0 1017.1 1016.3 0.0
 
Date/Time
EDT
Temp
°C
App
Temp
°C
Dew
Point
°C
Rel
Hum
%
Delta-T
°C
Wind Press
QNH
hPa
Press
MSL
hPa
Rain since
9am
mm
Dir  Spd
km/h
Gust
km/h
Spd
kts
Gust
kts
22/11:30pm 9.9 9.2 7.0 82 1.4 CALM 0 0 0 0 1017.1 1016.3 0.0
22/11:00pm 9.5 8.8 6.8 83 1.3 CALM 0 0 0 0 1017.1 1016.3 0.0
22/10:30pm 11.2 10.5 7.1 76 2.0 CALM 0 0 0 0 1017.2 1016.4 0.0
22/10:00pm 11.6 10.8 6.7 72 2.4 CALM 0 0 0 0 1017.1 1016.3 0.0
22/09:30pm 13.0 12.5 7.9 71 2.6 CALM 0 0 0 0 1017.1 1016.3 0.0
22/09:00pm 13.8 12.9 7.8 67 3.1 N 2 6 1 3 1016.8 1016.0 0.0
22/08:30pm 14.7 13.7 7.3 61 3.8 N 2 7 1 4 1016.3 1015.6 0.0
22/08:00pm 15.1 12.5 6.1 55 4.5 NNW 9 11 5 6 1016.1 1015.3 0.0
22/07:30pm 17.9 15.3 6.1 46 6.0 NNW 9 11 5 6 1015.8 1015.0 0.0
22/07:00pm 20.6 17.1 5.4 37 7.8 NW 13 17 7 9 1015.6 1014.8 0.0
22/06:30pm 22.2 18.6 5.2 33 8.7 NW 13 19 7 10 1015.5 1014.7 0.0
22/06:00pm 23.3 19.1 5.7 32 9.2 NW 17 26 9 14 1015.2 1014.4 0.0
22/05:30pm 23.5 18.7 4.5 29 9.7 NNW 19 22 10 12 1015.2 1014.4 0.0
22/05:00pm 23.8 18.8 3.7 27 10.1 NW 19 26 10 14 1015.2 1014.4 0.0
22/04:30pm 24.2 19.7 4.0 27 10.3 WNW 17 28 9 15 1015.4 1014.6 0.0
22/04:00pm 24.0 19.4 5.4 30 9.7 NW 19 26 10 14 1015.4 1014.6 0.0
22/03:30pm 23.9 19.4 7.1 34 9.0 W 20 30 11 16 1015.5 1014.7 0.0
22/03:00pm 23.5 20.1 7.6 36 8.6 WNW 15 26 8 14 1015.7 1014.9 0.0
22/02:30pm 24.1 20.4 8.1 36 8.8 WNW 17 26 9 14 1016.0 1015.2 0.0
22/02:00pm 23.2 19.2 6.5 34 8.8 WNW 17 35 9 19 1016.4 1015.7 0.0
22/01:30pm 23.3 19.3 6.6 34 8.9 NW 17 26 9 14 1016.6 1015.8 0.0
22/01:00pm 21.8 18.1 6.1 36 8.2 W 15 28 8 15 1016.8 1016.0 0.0
22/12:30pm 21.8 18.0 5.7 35 8.3 NW 15 24 8 13 1017.0 1016.2 0.0
22/12:00pm 21.4 17.3 6.1 37 7.9 NW 17 26 9 14 1017.4 1016.6 0.0
22/11:30am 20.4 16.7 6.4 40 7.3 W 15 26 8 14 1017.8 1017.1 0.0
22/11:00am 19.9 16.6 7.9 46 6.4 W 15 20 8 11 1018.1 1017.4 0.0
22/10:30am 19.1 16.3 8.4 50 5.7 NW 13 19 7 10 1018.4 1017.6 0.0
22/10:00am 17.8 15.0 9.9 60 4.3 NNW 15 20 8 11 1018.5 1017.7 0.0
22/09:30am 16.1 13.7 10.2 68 3.2 NNW 13 17 7 9 1018.8 1018.0 0.0
22/09:00am 14.8 12.7 9.8 72 2.7 N 11 17 6 9 1018.9 1018.2 0.0
22/08:30am 13.0 11.8 9.6 80 1.8 NNE 6 9 3 5 1018.8 1018.0 0.0
22/08:00am 11.5 10.7 9.6 88 1.0 NNE 4 9 2 5 1018.5 1017.7 0.0
22/07:30am 9.7 9.6 9.4 98 0.2 CALM 0 6 0 3 1018.6 1017.8 0.0
22/07:00am 7.4 6.8 7.3 99 0.0 CALM 0 4 0 2 1018.3 1017.5 0.0
22/06:30am 6.6 5.8 6.3 98 0.1 CALM 0 0 0 0 1018.0 1017.3 0.0
22/06:00am 6.7 4.6 6.0 95 0.3 NNE 6 7 3 4 1017.8 1017.1 0.0
22/05:30am 7.9 7.3 7.5 97 0.2 CALM 0 0 0 0 1017.7 1017.0 0.0
22/05:00am 8.1 7.5 7.2 94 0.4 CALM 0 0 0 0 1017.5 1016.7 0.0
22/04:30am 9.0 8.4 7.5 90 0.7 CALM 0 6 0 3 1017.4 1016.6 0.0
22/04:17am 9.4 7.7 7.7 89 0.8 NE 6 7 3 4 1017.4 1016.6 0.0
22/04:00am 10.4 8.7 8.3 87 1.1 NE 7 9 4 5 1017.5 1016.7 0.0
22/03:30am 11.5 9.6 8.9 84 1.3 NE 9 13 5 7 1017.6 1016.9 0.0
22/03:00am 11.7 9.9 9.3 85 1.2 NE 9 13 5 7 1017.6 1016.9 0.0
22/02:30am 11.8 8.8 9.2 84 1.4 NE 15 19 8 10 1017.7 1017.0 0.0
22/02:00am 11.8 9.6 9.4 85 1.3 NE 11 13 6 7 1017.7 1017.0 0.0
22/01:30am 11.8 10.1 9.7 87 1.1 ENE 9 11 5 6 1017.8 1017.1 0.0
22/01:00am 11.6 9.8 9.5 87 1.1 ESE 9 11 5 6 1018.1 1017.4 0.0
22/12:30am 11.8 9.2 9.5 86 1.2 E 13 17 7 9 1018.4 1017.6 0.0
22/12:00am 11.8 9.6 9.5 86 1.2 E 11 17 6 9 1018.6 1017.8 0.0
 
Date/Time
EDT
Temp
°C
App
Temp
°C
Dew
Point
°C
Rel
Hum
%
Delta-T
°C
Wind Press
QNH
hPa
Press
MSL
hPa
Rain since
9am
mm
Dir  Spd
km/h
Gust
km/h
Spd
kts
Gust
kts
21/11:30pm 11.7 9.9 9.4 86 1.2 E 9 13 5 7 1018.7 1017.9 0.0
21/11:00pm 11.6 9.8 9.3 86 1.2 E 9 13 5 7 1018.8 1018.0 0.0
21/10:30pm 11.5 9.6 9.1 85 1.2 ESE 9 11 5 6 1018.8 1018.0 0.0
21/10:00pm 11.6 9.6 8.8 83 1.4 ESE 9 11 5 6 1019.0 1018.3 0.0
21/09:30pm 11.8 9.1 9.0 83 1.4 E 13 15 7 8 1018.8 1018.0 0.0
21/09:00pm 11.5 8.9 9.2 86 1.2 SE 13 17 7 9 1018.4 1017.6 0.0
21/08:44pm 11.1 8.7 8.8 86 1.2 SE 11 15 6 8 1018.1 1017.4 0.0
21/08:30pm 11.3 9.3 8.5 83 1.4 ESE 9 15 5 8 1018.3 1017.5 0.0
21/08:00pm 12.3 9.6 9.1 81 1.7 E 13 19 7 10 1017.7 1017.0 0.0
21/07:30pm 13.0 9.6 9.1 77 2.0 ENE 17 20 9 11 1017.2 1016.4 0.0
21/07:00pm 14.6 9.4 9.0 69 2.9 ENE 26 32 14 17 1016.4 1015.7 0.0
21/06:30pm 16.8 13.6 8.5 58 4.4 N 15 24 8 13 1016.0 1015.2 0.0
21/06:00pm 19.8 15.8 3.1 33 8.1 WSW 13 22 7 12 1015.5 1014.7 0.0
21/05:30pm 20.3 16.4 3.5 33 8.2 NW 13 20 7 11 1015.1 1014.3 0.0
21/05:00pm 20.3 16.8 3.5 33 8.2 WSW 11 26 6 14 1015.0 1014.2 0.0
21/04:30pm 20.7 16.0 3.0 31 8.6 W 17 26 9 14 1015.1 1014.3 0.0
21/04:00pm 20.6 16.5 2.0 29 8.9 W 13 22 7 12 1015.1 1014.3 0.0
21/03:30pm 19.9 15.0 2.3 31 8.4 W 17 26 9 14 1015.1 1014.3 0.0
21/03:00pm 20.6 16.6 5.0 36 7.9 WSW 15 35 8 19 1015.3 1014.5 0.0
21/02:30pm 19.1 15.4 4.5 38 7.2 W 13 22 7 12 1015.7 1014.9 0.0
21/02:00pm 19.2 16.0 7.0 45 6.4 W 13 26 7 14 1016.1 1015.3 0.0
21/01:30pm 18.6 15.8 6.8 46 6.1 WSW 11 20 6 11 1016.3 1015.6 0.0
21/01:00pm 18.2 14.7 5.4 43 6.4 WSW 13 24 7 13 1016.7 1015.9 0.0
21/12:30pm 16.9 14.3 4.3 43 6.1 NW 7 17 4 9 1017.0 1016.2 0.0
21/12:00pm 16.1 13.8 5.7 50 5.2 NNW 7 15 4 8 1017.3 1016.5 0.0
21/11:30am 15.5 13.4 6.8 56 4.4 NW 7 13 4 7 1017.7 1017.0 0.0
21/11:00am 14.8 12.6 6.4 57 4.2 N 7 17 4 9 1017.9 1017.2 0.0
21/10:30am 13.4 11.6 5.6 59 3.8 N 4 9 2 5 1018.3 1017.5 0.0
21/10:00am 12.3 10.3 6.1 66 3.0 NE 6 11 3 6 1018.3 1017.5 0.0
21/09:30am 11.2 8.5 5.7 69 2.6 NNE 9 13 5 7 1018.3 1017.5 0.0
21/09:00am 10.3 7.5 5.3 71 2.4 NNW 9 11 5 6 1018.1 1017.4 4.8
21/08:30am 9.5 7.1 5.3 75 2.0 WNW 7 11 4 6 1018.0 1017.3 4.8
21/08:00am 8.0 6.7 6.0 87 0.9 NNW 2 6 1 3 1017.5 1016.7 4.8
21/07:30am 6.0 5.0 5.7 98 0.1 CALM 0 0 0 0 1017.3 1016.5 4.8
21/07:00am 5.0 3.8 4.4 96 0.3 CALM 0 0 0 0 1017.1 1016.3 4.8
21/06:30am 5.4 3.9 5.1 98 0.1 NNW 2 6 1 3 1016.9 1016.1 4.8
21/06:00am 4.8 3.1 3.9 94 0.4 NNW 2 7 1 4 1016.6 1015.8 4.8
21/05:30am 6.0 4.9 5.0 93 0.5 CALM 0 0 0 0 1016.2 1015.5 4.8
21/05:00am 6.4 4.8 4.7 89 0.8 NW 2 7 1 4 1015.7 1014.9 4.8
21/04:30am 7.4 4.4 6.2 92 0.6 NW 11 13 6 7 1015.4 1014.6 4.8
21/04:00am 6.7 4.3 5.3 91 0.6 WNW 7 9 4 5 1015.5 1014.7 4.8
21/03:30am 7.3 4.6 5.6 89 0.8 W 9 11 5 6 1015.6 1014.8 4.8
21/03:00am 8.0 5.4 6.0 87 0.9 W 9 13 5 7 1015.9 1015.1 4.8
21/02:30am 8.6 6.1 6.6 87 1.0 W 9 13 5 7 1015.7 1014.9 4.8
21/02:00am 9.5 7.2 7.6 88 0.9 WNW 9 13 5 7 1015.8 1015.0 4.8
21/01:30am 9.9 7.8 8.2 89 0.9 WSW 9 11 5 6 1015.8 1015.0 4.8
21/01:00am 11.2 8.8 8.6 84 1.3 WSW 11 15 6 8 1016.1 1015.3 4.8
21/12:30am 11.9 9.3 9.5 85 1.3 NW 13 19 7 10 1016.8 1016.0 4.8
21/12:13am 12.2 9.3 9.6 84 1.4 WNW 15 22 8 12 1016.3 1015.6 4.8
21/12:02am 12.5 12.1 9.7 83 1.5 S 2 7 1 4 1016.7 1015.9 4.8
21/12:00am 12.5 11.7 9.7 83 1.5 SSW 4 7 2 4 1016.8 1016.0 4.8
 
Date/Time
EDT
Temp
°C
App
Temp
°C
Dew
Point
°C
Rel
Hum
%
Delta-T
°C
Wind Press
QNH
hPa
Press
MSL
hPa
Rain since
9am
mm
Dir  Spd
km/h
Gust
km/h
Spd
kts
Gust
kts
20/11:59pm 12.4 11.6 9.6 83 1.5 SW 4 9 2 5 1016.8 1016.0 4.8
20/11:30pm 12.7 11.1 10.1 84 1.4 W 9 13 5 7 1016.9 1016.1 4.8
20/11:20pm 12.8 11.7 10.5 86 1.2 WNW 7 11 4 6 1016.9 1016.1 4.8
20/11:00pm 13.0 10.5 10.9 87 1.1 NW 15 22 8 12 1016.8 1016.0 4.8
20/10:30pm 13.4 9.1 10.9 85 1.4 WNW 24 32 13 17 1016.0 1015.2 4.8
20/10:00pm 13.9 9.7 11.1 83 1.5 WNW 24 35 13 19 1016.0 1015.2 4.8
20/09:30pm 14.1 11.7 12.8 92 0.7 NW 17 19 9 10 1016.0 1015.2 4.8
20/09:00pm 14.2 13.4 12.9 92 0.7 NW 9 11 5 6 1015.7 1014.9 4.8

Latest Capital City Observations: Canberra | Sydney | Melbourne | Brisbane | Adelaide | Perth | Hobart | Darwin

Other Formats:

Comma delimited format used in spreadsheet applications
http://www.bom.gov.au/fwo/IDN60903/IDN60903.95716.axf

JavaScript Object Notation format (JSON) in row-major order
http://www.bom.gov.au/fwo/IDN60903/IDN60903.95716.json